03:13
Airports
History
Links
Donate
Help keep this website running!
PayPal
Bitcoin
This page is community maintained. The information is intended for PC simulator navigation or reference.
Always use approved charts for navigation.
LILR
Cremona Migliaro
Cremona Migliaro (LILR)
Cremona, Lombardia, Italy (26100)
(U)
Lat/Lng:45° 10' 0" N / 10° 0' 8" E
45.166668 / 10.002222
Elevation:161'ft / 49mMSL
ID / ICAO:LILR
Runways:1
Longest:11-29
Asphalt 644m / 2,112ft
Nearby Weather17:55 GMT 2018-02-17
Nearby weather at LIMS, PIACENZA located 22.2 nautical miles from LILR
Altimeter: 30.06
Visibility: 2.2 statute miles
Wind: 1 knots (from 200°)
Temp: 5°c / 41°f
Humidity: 100.0%

METAR: LIMS 171755Z 20001KT 3500 -DZ BR OVC030 05/05 Q1018

(Powered by phpweather)
Nearby VORs <50NM
Nearby NDBs
Runway 11 / 29
Dimensions:643.7 x 29.9m 2112' x 98'ft
Surface:Asphalt
Runway 11 [A]Runway 29 [B]
Heading:110°TH 290°TH
Lat:
Lng:
45° 10' 3.78"N
9° 59' 54.06"E
45° 9' 56.23"N
10° 0' 21.94"E
User Notes and Comments
45° 10' 0" N / 10° 0' 8" E
Distance To
Airport ID:
Nearby Airports
(C) PIACENZA 22.2 NM
LIMS ( WX ) SW 218°
(C) GHEDI 22.4 NM
LIPL ( WX ) NE 35°
(C) Montichiari 24.1 NM
LIPO NE 41°
(C) PARMA 27.6 NM
LIMP SSE 148°
(C) Bergamo Orio Al Serio 37.7 NM
LIME ( WX ) NNW 337°
4 Mantova 38.7 NM
LIDM E 93°
(C) Milano Linate 40.3 NM
LIML ( WX ) WNW 298°
VFR Chart
Flight Planning at SkyVector.com